Time;durP1;ratioP1;P1;durP2;ratioP2;P2;SDS_P1;SDS_P2;PMS_P1;PMS_P2;Temp;Humidity;BMP_temperature;BMP_pressure;BME280_temperature;BME280_humidity;BME280_pressure;Samples;Min_cycle;Max_cycle;Signal;HPM_P1;HPM_P2
2022/05/28 00:02:05;;;;;;;10.10;2.75;;;;;;;11.37;63.81;101974.03;3584035;40;20302;-62
2022/05/28 00:04:31;;;;;;;10.50;3.13;;;;;;;11.37;63.89;101977.59;3584617;40;20053;-62
2022/05/28 00:06:56;;;;;;;10.68;3.25;;;;;;;11.34;63.35;101972.34;3584932;40;20045;-61
2022/05/28 00:09:22;;;;;;;12.85;3.10;;;;;;;11.27;63.57;101957.44;3586878;40;20124;-61
2022/05/28 00:11:48;;;;;;;10.85;3.13;;;;;;;11.27;64.00;101973.59;3584836;40;20110;-62
2022/05/28 00:14:13;;;;;;;14.02;3.30;;;;;;;11.21;63.82;101956.84;3584755;40;20479;-62
2022/05/28 00:16:41;;;;;;;13.63;3.30;;;;;;;11.22;64.42;101962.16;3583312;40;20052;-62
2022/05/28 00:19:08;;;;;;;12.63;4.20;;;;;;;11.23;64.70;101960.34;3584275;40;20048;-62
2022/05/28 00:21:34;;;;;;;14.80;3.47;;;;;;;11.20;64.38;101961.38;3582553;40;20375;-62
2022/05/28 00:24:01;;;;;;;7.80;3.00;;;;;;;11.18;64.32;101963.25;3581076;40;20052;-62
2022/05/28 00:26:27;;;;;;;10.80;3.72;;;;;;;11.14;64.63;101950.88;3585824;40;20062;-62
2022/05/28 00:28:53;;;;;;;12.15;3.40;;;;;;;11.18;64.94;101947.09;3584361;40;20063;-62
2022/05/28 00:31:19;;;;;;;10.60;3.45;;;;;;;11.22;64.44;101954.06;3582279;40;20057;-62
2022/05/28 00:33:45;;;;;;;11.77;3.75;;;;;;;11.14;64.92;101937.44;3583826;40;20106;-62
2022/05/28 00:36:15;;;;;;;16.38;3.70;;;;;;;11.27;64.53;101946.66;3582667;40;20122;-62
2022/05/28 00:38:43;;;;;;;14.30;3.50;;;;;;;11.13;64.65;101911.44;3583980;40;20060;-62
2022/05/28 00:41:11;;;;;;;14.05;3.58;;;;;;;11.34;65.11;101936.47;3583618;40;20060;-62
2022/05/28 00:43:40;;;;;;;11.77;3.22;;;;;;;11.41;64.56;101942.44;3583192;40;20121;-62
2022/05/28 00:46:22;;;;;;;13.50;3.60;;;;;;;11.47;64.88;101940.34;3584265;40;20290;-62
2022/05/28 00:48:58;;;;;;;14.85;3.42;;;;;;;11.49;64.87;101945.66;3581828;40;20044;-63
2022/05/28 00:51:32;;;;;;;15.88;3.95;;;;;;;11.50;64.37;101942.00;3581795;40;20422;-63
2022/05/28 00:54:04;;;;;;;9.35;3.50;;;;;;;11.51;64.40;101951.81;3584143;40;20249;-63
2022/05/28 00:56:30;;;;;;;12.02;3.80;;;;;;;11.50;64.46;101947.41;3584342;40;20379;-62
2022/05/28 00:58:58;;;;;;;8.98;3.15;;;;;;;11.36;64.60;101923.84;3583100;40;20041;-62
2022/05/28 01:01:29;;;;;;;12.95;3.70;;;;;;;11.39;64.24;101938.00;3584145;40;20386;-62
2022/05/28 01:04:00;;;;;;;12.90;3.60;;;;;;;11.39;65.23;101940.72;3584255;40;20045;-62
2022/05/28 01:06:47;;;;;;;13.25;3.80;;;;;;;11.38;65.18;101938.97;3584239;40;20059;-62
2022/05/28 01:09:29;;;;;;;12.68;4.03;;;;;;;11.37;64.79;101939.91;3583843;40;20044;-62
2022/05/28 01:12:27;;;;;;;16.60;3.72;;;;;;;11.30;65.56;101927.69;3582196;40;20056;-62
2022/05/28 01:15:17;;;;;;;12.88;4.18;;;;;;;11.31;65.30;101931.25;3586323;40;20130;-62
2022/05/28 01:18:01;;;;;;;10.25;3.45;;;;;;;11.07;65.65;101887.53;3588308;40;20068;-62
2022/05/28 01:20:40;;;;;;;12.95;3.85;;;;;;;11.24;65.87;101922.59;3585981;40;20407;-62
2022/05/28 01:23:24;;;;;;;13.00;3.78;;;;;;;11.26;65.90;101928.78;3584458;40;20044;-62
2022/05/28 01:26:22;;;;;;;11.15;4.15;;;;;;;11.06;65.32;101905.47;3583715;40;20086;-62
2022/05/28 01:29:00;;;;;;;16.83;4.65;;;;;;;11.20;66.09;101923.69;3585868;40;20102;-62
2022/05/28 01:31:30;;;;;;;14.90;3.97;;;;;;;10.88;65.75;101869.56;3583629;40;20933;-62
2022/05/28 01:34:01;;;;;;;12.02;3.90;;;;;;;11.11;65.71;101907.97;3584261;40;20397;-62
2022/05/28 01:36:32;;;;;;;14.82;3.97;;;;;;;11.21;66.19;101925.41;3583225;40;20096;-65
2022/05/28 01:38:58;;;;;;;8.82;3.72;;;;;;;11.19;65.91;101919.22;3585727;40;20088;-62
2022/05/28 01:41:29;;;;;;;14.43;4.22;;;;;;;11.17;66.29;101918.44;3584135;40;20059;-62
2022/05/28 01:43:57;;;;;;;13.27;4.20;;;;;;;10.97;66.37;101880.81;3580314;40;20058;-62
2022/05/28 01:46:27;;;;;;;11.63;3.92;;;;;;;11.18;66.53;101916.63;3583851;40;20060;-62
2022/05/28 01:48:55;;;;;;;12.48;4.13;;;;;;;11.14;65.90;101918.59;3584611;40;20125;-62
2022/05/28 01:51:34;;;;;;;12.15;4.20;;;;;;;11.12;66.26;101917.78;3583265;40;20064;-62
2022/05/28 01:54:13;;;;;;;17.80;4.28;;;;;;;11.12;66.67;101909.69;3582445;40;20391;-62
2022/05/28 01:56:45;;;;;;;12.50;4.50;;;;;;;11.13;66.40;101914.13;3583867;40;20053;-62
2022/05/28 01:59:15;;;;;;;15.25;4.47;;;;;;;11.12;66.97;101915.09;3583977;40;20129;-62
2022/05/28 02:01:42;;;;;;;13.48;4.25;;;;;;;11.15;66.70;101915.81;3582984;40;20305;-63
2022/05/28 02:04:09;;;;;;;13.20;4.10;;;;;;;11.16;67.20;101911.28;3584876;40;20051;-62
2022/05/28 02:06:38;;;;;;;14.45;4.30;;;;;;;11.17;66.47;101915.75;3583838;40;20044;-62
2022/05/28 02:09:24;;;;;;;13.73;4.80;;;;;;;11.15;67.12;101920.31;3584365;40;20390;-63
2022/05/28 02:12:22;;;;;;;16.58;4.82;;;;;;;11.14;67.13;101918.59;3581756;40;20049;-62
2022/05/28 02:15:39;;;;;;;10.15;4.00;;;;;;;11.12;67.69;101920.47;3579952;40;20122;-62
2022/05/28 02:18:32;;;;;;;14.68;4.43;;;;;;;11.10;67.78;101928.63;3583782;40;20071;-62
2022/05/28 02:21:22;;;;;;;13.57;4.25;;;;;;;11.07;68.01;101919.81;3585929;40;20121;-62
2022/05/28 02:23:56;;;;;;;14.40;4.00;;;;;;;11.05;67.63;101922.56;3584579;40;20064;-62
2022/05/28 02:26:43;;;;;;;12.50;3.97;;;;;;;11.07;68.06;101917.13;3585447;40;20063;-62
2022/05/28 02:29:10;;;;;;;14.43;4.20;;;;;;;11.08;67.73;101914.34;3585160;40;20421;-62
2022/05/28 02:31:36;;;;;;;14.02;4.57;;;;;;;11.10;68.11;101915.16;3582870;40;20411;-62
2022/05/28 02:34:03;;;;;;;12.45;4.47;;;;;;;11.10;68.00;101908.88;3583711;40;20052;-62
2022/05/28 02:36:30;;;;;;;13.57;4.18;;;;;;;11.09;67.54;101912.53;3583816;40;20047;-62
2022/05/28 02:38:57;;;;;;;12.00;4.43;;;;;;;11.06;68.78;101907.28;3586286;40;20052;-62
2022/05/28 02:41:24;;;;;;;14.15;3.83;;;;;;;11.10;68.10;101906.19;3584437;40;20063;-62
2022/05/28 02:43:49;;;;;;;13.77;4.47;;;;;;;11.09;68.78;101904.47;3586157;40;20082;-62
2022/05/28 02:46:15;;;;;;;12.50;3.85;;;;;;;11.05;68.83;101898.34;3586651;40;20379;-62
2022/05/28 02:48:42;;;;;;;11.77;3.78;;;;;;;11.09;68.99;101904.47;3585910;40;20060;-62
2022/05/28 02:51:12;;;;;;;12.20;3.80;;;;;;;11.07;68.51;101898.28;3584509;40;20399;-62
2022/05/28 02:53:39;;;;;;;11.73;4.35;;;;;;;11.04;69.05;101903.81;3585659;40;20055;-62
2022/05/28 02:56:06;;;;;;;17.08;4.63;;;;;;;11.02;69.28;101892.25;3584884;40;20052;-62
2022/05/28 02:58:32;;;;;;;10.95;4.13;;;;;;;10.99;68.57;101904.03;3583868;40;20107;-62
2022/05/28 03:00:58;;;;;;;16.45;4.38;;;;;;;10.98;68.66;101894.22;3583465;40;20109;-62
2022/05/28 03:03:24;;;;;;;11.90;4.03;;;;;;;10.98;69.47;101893.34;3585355;40;20088;-62
2022/05/28 03:05:51;;;;;;;14.20;3.92;;;;;;;10.95;69.01;101885.41;3585400;40;20109;-62
2022/05/28 03:08:18;;;;;;;14.45;4.28;;;;;;;10.96;69.04;101889.84;3583815;40;20045;-62
2022/05/28 03:10:45;;;;;;;10.18;3.47;;;;;;;10.95;69.26;101886.28;3583281;40;20076;-62
2022/05/28 03:13:12;;;;;;;16.45;4.28;;;;;;;10.93;70.08;101883.66;3582246;40;20098;-62
2022/05/28 03:15:39;;;;;;;11.10;3.90;;;;;;;10.93;69.76;101893.53;3583967;40;20070;-63
2022/05/28 03:18:05;;;;;;;14.75;3.90;;;;;;;10.93;69.76;101886.34;3583354;40;20496;-62
2022/05/28 03:20:32;;;;;;;12.10;4.05;;;;;;;10.94;69.61;101887.19;3584748;40;20048;-62
2022/05/28 03:22:58;;;;;;;17.02;4.10;;;;;;;10.83;70.11;101882.31;3585950;40;20044;-63
2022/05/28 03:25:25;;;;;;;14.90;4.07;;;;;;;10.75;69.78;101873.75;3584382;40;20041;-62
2022/05/28 03:27:50;;;;;;;12.10;4.65;;;;;;;10.80;70.36;101887.84;3585087;40;20055;-62
2022/05/28 03:30:17;;;;;;;14.93;4.25;;;;;;;10.63;70.50;101879.69;3584759;40;20088;-62
2022/05/28 03:32:42;;;;;;;14.07;4.40;;;;;;;10.66;70.88;101890.31;3585234;40;20048;-63
2022/05/28 03:35:09;;;;;;;15.02;4.53;;;;;;;10.69;70.29;101900.94;3582973;40;20052;-62
2022/05/28 03:37:36;;;;;;;15.50;4.03;;;;;;;10.65;70.58;101899.28;3584305;40;20301;-64
2022/05/28 03:40:03;;;;;;;13.52;4.22;;;;;;;10.66;70.52;101896.56;3586108;40;20048;-62
2022/05/28 03:42:29;;;;;;;12.77;4.03;;;;;;;10.58;71.31;101877.19;3581482;40;20059;-63
2022/05/28 03:44:54;;;;;;;14.30;4.07;;;;;;;10.60;71.24;101888.75;3584860;40;20092;-62
2022/05/28 03:47:21;;;;;;;10.48;4.00;;;;;;;10.65;71.55;101893.91;3584539;40;20125;-62
2022/05/28 03:49:47;;;;;;;9.57;3.80;;;;;;;10.69;71.60;101900.94;3584047;40;20059;-62
2022/05/28 03:52:14;;;;;;;14.48;4.25;;;;;;;10.71;71.71;101906.22;3583092;40;20632;-62
2022/05/28 03:54:43;;;;;;;11.23;3.78;;;;;;;10.69;71.78;101900.94;3585502;40;20056;-62
2022/05/28 03:57:20;;;;;;;13.73;3.92;;;;;;;10.72;71.19;101914.25;3584528;40;20047;-64
2022/05/28 03:59:45;;;;;;;13.80;4.55;;;;;;;10.72;72.36;101911.56;3586118;40;20076;-63
2022/05/28 04:02:11;;;;;;;12.80;4.45;;;;;;;10.71;71.61;101912.47;3585513;40;20044;-63
2022/05/28 04:04:38;;;;;;;12.98;3.80;;;;;;;10.72;72.65;101916.03;3585234;40;20363;-63
2022/05/28 04:07:04;;;;;;;15.80;4.03;;;;;;;10.71;72.15;101911.59;3581865;40;20067;-62
2022/05/28 04:09:30;;;;;;;20.67;4.32;;;;;;;10.73;71.93;101913.28;3578577;40;20051;-63
2022/05/28 04:11:56;;;;;;;14.20;4.15;;;;;;;10.75;72.65;101910.50;3583763;40;20306;-63
2022/05/28 04:14:21;;;;;;;13.45;3.85;;;;;;;10.76;72.21;101918.53;3584727;40;20117;-63
2022/05/28 04:16:47;;;;;;;12.07;3.92;;;;;;;10.81;72.70;101921.88;3580465;40;20158;-63
2022/05/28 04:19:13;;;;;;;13.27;4.20;;;;;;;10.76;72.95;101902.38;3584572;40;20060;-63
2022/05/28 04:21:38;;;;;;;14.70;4.43;;;;;;;10.88;72.96;101915.28;3583215;40;20063;-63
2022/05/28 04:24:05;;;;;;;14.35;3.83;;;;;;;10.90;72.36;101924.13;3581130;40;20342;-63
2022/05/28 04:26:31;;;;;;;11.07;3.92;;;;;;;10.93;72.29;101921.31;3583554;40;20244;-65
2022/05/28 04:28:57;;;;;;;11.75;3.60;;;;;;;10.97;72.48;101921.16;3584067;40;20055;-62
2022/05/28 04:31:24;;;;;;;11.80;4.13;;;;;;;11.01;72.15;101923.66;3583806;40;20066;-65
2022/05/28 04:33:50;;;;;;;11.60;3.55;;;;;;;11.03;72.32;101920.88;3584300;40;20485;-63
2022/05/28 04:36:16;;;;;;;12.65;3.35;;;;;;;11.09;72.30;101926.00;3581985;40;20086;-63
2022/05/28 04:38:42;;;;;;;12.35;3.50;;;;;;;11.13;73.05;101922.19;3584354;40;20068;-63
2022/05/28 04:41:08;;;;;;;12.85;3.17;;;;;;;11.19;72.26;101927.28;3584632;40;20059;-63
2022/05/28 04:43:34;;;;;;;11.63;3.53;;;;;;;11.20;72.70;101912.91;3584659;40;20068;-63
2022/05/28 04:45:59;;;;;;;13.48;3.60;;;;;;;11.31;72.57;101929.41;3584049;40;20067;-63
2022/05/28 04:48:26;;;;;;;16.67;3.78;;;;;;;11.38;72.64;101925.50;3584580;40;20044;-63
2022/05/28 04:50:51;;;;;;;9.38;3.08;;;;;;;11.47;73.38;101926.00;3584542;40;20080;-63
2022/05/28 04:53:17;;;;;;;14.93;3.20;;;;;;;11.12;72.68;101858.56;3582692;40;20256;-63
2022/05/28 04:55:44;;;;;;;11.05;3.30;;;;;;;11.62;73.26;101936.91;3585201;40;20079;-63
2022/05/28 04:58:12;;;;;;;11.80;3.60;;;;;;;11.71;72.75;101935.59;3584459;40;20063;-63
2022/05/28 05:00:40;;;;;;;16.17;3.53;;;;;;;11.78;72.65;101937.03;3584459;40;20063;-63
2022/05/28 05:03:06;;;;;;;15.20;3.53;;;;;;;11.82;72.97;101937.75;3583200;40;20382;-63
2022/05/28 05:05:32;;;;;;;12.55;3.30;;;;;;;11.91;72.33;101942.72;3584318;40;20055;-63
2022/05/28 05:07:58;;;;;;;15.85;3.78;;;;;;;11.95;72.66;101946.13;3584330;40;20408;-62
2022/05/28 05:10:24;;;;;;;11.18;3.67;;;;;;;11.98;72.38;101938.75;3581961;40;20056;-63
2022/05/28 05:12:50;;;;;;;10.18;3.50;;;;;;;12.05;72.40;101944.72;3584036;40;20096;-63
2022/05/28 05:15:16;;;;;;;14.82;3.08;;;;;;;12.08;71.67;101950.84;3584550;40;20052;-63
2022/05/28 05:17:42;;;;;;;14.35;3.38;;;;;;;12.15;71.51;101945.16;3584154;40;20056;-63
2022/05/28 05:20:11;;;;;;;12.68;3.40;;;;;;;12.17;71.84;101957.59;3583108;40;20068;-63
2022/05/28 05:22:37;;;;;;;10.68;2.97;;;;;;;12.21;72.05;101951.09;3583966;40;21516;-63
2022/05/28 05:25:04;;;;;;;12.80;3.22;;;;;;;12.26;71.93;101961.66;3580680;40;20048;-63
2022/05/28 05:27:30;;;;;;;13.63;3.47;;;;;;;12.10;71.82;101915.72;3584049;40;20071;-63
2022/05/28 05:29:57;;;;;;;12.55;3.22;;;;;;;12.35;71.73;101952.22;3584192;40;20394;-62
2022/05/28 05:32:25;;;;;;;6.60;2.85;;;;;;;12.41;71.58;101962.69;3583621;40;20048;-62
2022/05/28 05:34:50;;;;;;;12.48;2.90;;;;;;;12.45;70.52;101959.75;3581184;40;20052;-63
2022/05/28 05:37:16;;;;;;;12.52;3.08;;;;;;;12.49;70.89;101961.31;3582445;40;20051;-62
2022/05/28 05:39:42;;;;;;;10.18;3.00;;;;;;;12.54;70.28;101969.19;3584518;40;20066;-63
2022/05/28 05:42:08;;;;;;;12.30;2.65;;;;;;;12.58;70.09;101964.50;3580312;40;20060;-62
2022/05/28 05:44:34;;;;;;;7.68;2.50;;;;;;;12.64;69.10;101962.38;3583959;40;20060;-63
2022/05/28 05:47:00;;;;;;;11.15;2.20;;;;;;;12.72;68.59;101962.84;3582711;40;20044;-63
2022/05/28 05:49:25;;;;;;;9.75;2.38;;;;;;;12.81;68.65;101966.88;3583696;40;20294;-64
2022/05/28 05:51:52;;;;;;;8.52;2.20;;;;;;;12.89;68.21;101969.16;3584131;40;20056;-63
2022/05/28 05:54:19;;;;;;;9.70;2.05;;;;;;;13.04;67.13;101962.97;3584451;40;20052;-63
2022/05/28 05:56:45;;;;;;;8.57;2.05;;;;;;;13.25;65.67;101969.03;3584408;40;20056;-64
2022/05/28 05:59:12;;;;;;;7.35;1.95;;;;;;;12.86;64.44;101869.50;3582628;40;20059;-63
2022/05/28 06:01:38;;;;;;;5.93;1.50;;;;;;;13.52;64.00;101963.94;3583914;40;20059;-63
2022/05/28 06:04:04;;;;;;;8.55;2.10;;;;;;;13.52;63.99;101947.72;3583663;40;20118;-64
2022/05/28 06:06:30;;;;;;;4.32;1.98;;;;;;;13.74;64.51;101969.00;3582972;40;20060;-63
2022/05/28 06:08:56;;;;;;;8.13;1.77;;;;;;;13.84;63.39;101970.22;3583767;40;20147;-63
2022/05/28 06:11:21;;;;;;;9.38;1.70;;;;;;;13.94;62.17;101971.44;3583743;40;20092;-64
2022/05/28 06:13:47;;;;;;;8.27;1.83;;;;;;;14.06;61.58;101969.00;3584134;40;20092;-64
2022/05/28 06:16:13;;;;;;;6.53;1.55;;;;;;;14.24;60.08;101969.72;3582819;40;20063;-63
2022/05/28 06:18:39;;;;;;;7.60;1.63;;;;;;;14.44;60.38;101972.13;3583274;40;20048;-63
2022/05/28 06:21:04;;;;;;;7.43;1.65;;;;;;;14.67;60.30;101978.88;3583856;40;20417;-64
2022/05/28 06:23:30;;;;;;;6.80;1.25;;;;;;;14.84;59.01;101981.47;3582443;40;20287;-64
2022/05/28 06:25:56;;;;;;;5.60;1.42;;;;;;;14.95;58.88;101978.06;3580595;40;20193;-63
2022/05/28 06:28:22;;;;;;;5.28;1.60;;;;;;;14.98;57.13;101977.03;3583368;40;20063;-64
2022/05/28 06:30:50;;;;;;;7.00;1.63;;;;;;;14.96;54.97;101977.09;3583302;40;21487;-64
2022/05/28 06:33:18;;;;;;;4.97;1.30;;;;;;;14.86;55.46;101990.34;3582690;40;20053;-63
2022/05/28 06:35:44;;;;;;;8.20;1.38;;;;;;;14.93;56.42;101988.13;3578486;40;20150;-63
2022/05/28 06:38:10;;;;;;;6.72;1.10;;;;;;;14.88;56.07;101973.16;3583544;40;20060;-64
2022/05/28 06:40:36;;;;;;;4.53;1.45;;;;;;;15.07;55.54;101977.31;3580732;40;20126;-63
2022/05/28 06:43:04;;;;;;;5.65;1.63;;;;;;;15.30;54.76;101988.53;3583510;40;20054;-63
2022/05/28 06:45:30;;;;;;;5.70;1.23;;;;;;;15.41;53.75;101958.91;3583272;40;20052;-64
2022/05/28 06:47:55;;;;;;;7.30;1.45;;;;;;;15.56;53.57;101976.91;3583356;40;20050;-64
2022/05/28 06:53:08;;;;;;;7.32;1.40;;;;;;;16.09;52.16;101989.81;3583524;40;20044;-64
2022/05/28 06:55:38;;;;;;;8.27;1.60;;;;;;;16.23;51.36;101993.31;3583390;40;20327;-64
2022/05/28 06:58:06;;;;;;;5.22;1.42;;;;;;;16.41;50.17;101987.63;3582351;40;20056;-64
2022/05/28 07:00:32;;;;;;;7.03;1.60;;;;;;;16.52;49.92;101992.31;3583664;40;20127;-64
2022/05/28 07:02:58;;;;;;;5.20;1.30;;;;;;;16.50;49.12;101994.28;3584731;40;20064;-64
2022/05/28 07:05:24;;;;;;;5.57;1.35;;;;;;;16.56;48.14;102002.88;3584580;40;20302;-65
2022/05/28 07:07:49;;;;;;;6.32;1.38;;;;;;;16.52;47.90;101998.63;3585114;40;20348;-64
2022/05/28 07:10:15;;;;;;;4.70;1.27;;;;;;;16.43;47.41;102002.84;3585329;40;20158;-65
2022/05/28 07:12:41;;;;;;;5.40;1.70;;;;;;;16.25;47.58;102004.09;3585267;40;20052;-65
2022/05/28 07:15:08;;;;;;;6.57;1.70;;;;;;;16.01;48.08;102003.84;3583848;40;20173;-65
2022/05/28 07:17:34;;;;;;;7.75;1.60;;;;;;;15.96;49.49;102009.59;3584795;40;20428;-65
2022/05/28 07:19:59;;;;;;;5.15;1.77;;;;;;;16.11;48.39;102004.13;3584676;40;20096;-65
2022/05/28 07:22:25;;;;;;;3.40;1.25;;;;;;;16.35;47.13;101999.78;3585204;40;20063;-64
2022/05/28 07:24:50;;;;;;;6.25;1.75;;;;;;;16.42;47.58;102014.66;3584184;40;20052;-65
2022/05/28 07:27:17;;;;;;;5.18;1.15;;;;;;;16.48;47.10;101992.53;3584543;40;20060;-65
2022/05/28 07:29:43;;;;;;;7.97;1.45;;;;;;;16.64;47.55;102008.63;3584405;40;20106;-65
2022/05/28 07:32:09;;;;;;;6.13;1.60;;;;;;;16.80;46.38;102007.63;3583894;40;20064;-65
2022/05/28 07:34:34;;;;;;;10.07;1.80;;;;;;;16.93;46.02;102008.50;3584668;40;20048;-64
2022/05/28 07:37:00;;;;;;;6.85;1.40;;;;;;;17.08;45.59;102009.28;3582664;40;20056;-64
2022/05/28 07:39:26;;;;;;;6.18;1.40;;;;;;;17.00;45.58;102009.84;3584909;40;20060;-65
2022/05/28 07:41:52;;;;;;;5.45;1.33;;;;;;;16.80;45.31;102002.19;3583144;40;20096;-65
2022/05/28 07:44:19;;;;;;;7.25;1.45;;;;;;;16.27;45.13;101960.56;3583852;40;20088;-65
2022/05/28 07:46:44;;;;;;;8.20;1.55;;;;;;;16.35;46.02;101986.19;3583934;40;20067;-63
2022/05/28 07:49:11;;;;;;;3.17;1.10;;;;;;;16.52;46.85;102009.47;3586414;40;20048;-65
2022/05/28 07:51:37;;;;;;;4.80;1.25;;;;;;;16.79;47.10;102006.75;3583607;40;20087;-65
2022/05/28 07:54:05;;;;;;;6.05;1.42;;;;;;;17.28;45.13;102002.44;3579972;40;20081;-65
2022/05/28 07:56:32;;;;;;;6.05;1.50;;;;;;;17.63;44.95;102000.78;3584446;40;20052;-65
2022/05/28 07:58:59;;;;;;;5.00;1.08;;;;;;;17.95;42.48;102000.28;3582276;40;20056;-65
2022/05/28 08:01:29;;;;;;;5.72;1.20;;;;;;;18.28;41.24;101994.16;3592606;39;20117;-65
2022/05/28 08:04:01;;;;;;;5.32;1.38;;;;;;;18.41;41.84;102009.56;3586062;40;20044;-65
2022/05/28 08:06:31;;;;;;;5.13;1.08;;;;;;;18.60;42.25;101998.97;3585286;39;20092;-65
2022/05/28 08:08:59;;;;;;;6.53;1.67;;;;;;;18.63;42.33;101974.25;3584418;40;20088;-65
2022/05/28 08:11:25;;;;;;;3.20;1.13;;;;;;;18.63;39.62;101998.75;3584157;40;20126;-64
2022/05/28 08:13:53;;;;;;;6.40;1.38;;;;;;;18.45;40.20;102000.16;3584031;40;20102;-65
2022/05/28 08:16:19;;;;;;;6.10;1.65;;;;;;;18.30;40.92;102003.09;3582948;40;20157;-65
2022/05/28 08:18:46;;;;;;;5.78;1.50;;;;;;;17.93;42.18;101993.22;3584601;40;20051;-64
2022/05/28 08:23:57;;;;;;;7.30;1.45;;;;;;;17.31;43.78;101992.19;3587090;40;20477;-64
2022/05/28 08:26:24;;;;;;;5.75;1.13;;;;;;;17.08;44.27;102001.13;3584906;40;20060;-64
2022/05/28 08:28:52;;;;;;;7.03;1.25;;;;;;;17.13;43.71;101980.81;3585916;40;20125;-63
2022/05/28 08:31:20;;;;;;;4.72;1.30;;;;;;;17.55;43.79;101988.72;3580730;40;20055;-64
2022/05/28 08:33:46;;;;;;;6.47;1.50;;;;;;;18.02;42.62;101987.94;3585602;40;20453;-64
2022/05/28 08:36:12;;;;;;;4.00;1.20;;;;;;;18.45;41.90;101989.25;3582401;40;20049;-64
2022/05/28 08:38:39;;;;;;;6.13;1.25;;;;;;;18.82;39.19;101992.78;3586690;40;20060;-64
2022/05/28 08:41:36;;;;;;;3.67;0.95;;;;;;;19.19;39.94;101987.16;3585274;40;20064;-65
2022/05/28 08:44:21;;;;;;;3.45;1.08;;;;;;;19.47;38.51;101980.31;3586786;40;20067;-64
2022/05/28 08:47:10;;;;;;;4.65;1.35;;;;;;;19.67;37.85;101985.06;3585842;40;20059;-64
2022/05/28 08:49:37;;;;;;;6.00;1.40;;;;;;;19.98;37.66;101985.28;3585222;40;20064;-64
2022/05/28 08:52:25;;;;;;;4.80;1.38;;;;;;;20.29;37.57;101985.41;3581877;40;20398;-64
2022/05/28 08:54:59;;;;;;;4.22;1.50;;;;;;;20.31;36.67;101988.88;3584735;40;20351;-64
2022/05/28 08:57:59;;;;;;;4.13;1.33;;;;;;;20.50;35.21;101989.06;3583612;40;20062;-64
2022/05/28 09:00:27;;;;;;;4.07;1.40;;;;;;;20.83;35.11;101985.28;3583057;40;20056;-64
2022/05/28 09:03:05;;;;;;;5.30;1.30;;;;;;;21.08;35.60;101989.47;3583964;40;20373;-64
2022/05/28 09:05:44;;;;;;;6.10;1.10;;;;;;;21.37;34.54;101975.13;3584628;40;20636;-64
2022/05/28 09:08:12;;;;;;;4.70;1.20;;;;;;;21.15;34.99;101987.06;3583442;40;20060;-65
2022/05/28 09:10:49;;;;;;;6.45;1.80;;;;;;;20.57;36.46;101986.69;3584545;40;20125;-64
2022/05/28 09:13:52;;;;;;;6.68;1.35;;;;;;;20.06;36.63;101987.34;3584186;40;20059;-64
2022/05/28 09:16:33;;;;;;;4.13;1.60;;;;;;;19.48;38.40;101995.72;3583780;40;20402;-64
2022/05/28 09:19:15;;;;;;;5.53;1.27;;;;;;;18.93;39.77;101990.06;3582002;40;20063;-64
2022/05/28 09:21:41;;;;;;;5.40;1.60;;;;;;;18.55;40.54;101984.84;3585356;40;20056;-64
2022/05/28 09:24:23;;;;;;;6.40;1.45;;;;;;;18.78;41.69;101986.69;3581117;40;20302;-65
2022/05/28 09:27:06;;;;;;;7.65;2.00;;;;;;;19.28;41.08;101982.78;3585213;40;20064;-64
2022/05/28 09:30:05;;;;;;;9.25;1.48;;;;;;;19.70;39.27;101983.97;3585271;40;20130;-64
2022/05/28 09:33:16;;;;;;;5.25;1.33;;;;;;;20.07;37.85;101981.75;3581307;40;20064;-64
2022/05/28 09:35:57;;;;;;;3.55;1.30;;;;;;;20.52;38.12;101978.91;3584805;40;20110;-65
2022/05/28 09:38:45;;;;;;;5.85;2.00;;;;;;;20.88;35.38;101976.72;3585385;40;20084;-64
2022/05/28 09:41:40;;;;;;;5.28;1.27;;;;;;;20.97;35.13;101984.09;3584747;40;20130;-63
2022/05/28 09:45:05;;;;;;;5.78;1.52;;;;;;;20.70;34.74;101983.75;3582158;40;20048;-64
2022/05/28 09:47:49;;;;;;;;;;;;;;;20.17;35.80;101976.38;3584462;40;20160;-63
2022/05/28 09:50:29;;;;;;;4.32;1.42;;;;;;;19.80;36.72;101986.78;3583394;40;19932;-64
2022/05/28 09:56:03;;;;;;;3.80;1.02;;;;;;;19.33;37.07;101980.59;3585187;40;20109;-65
2022/05/28 09:58:37;;;;;;;4.78;1.45;;;;;;;19.72;37.24;101971.03;3583759;40;20052;-64
2022/05/28 10:01:12;;;;;;;2.92;1.48;;;;;;;20.12;37.05;101976.78;3584668;40;20048;-64
2022/05/28 10:06:30;;;;;;;6.22;1.33;;;;;;;20.85;35.70;101976.97;3583938;40;20051;-66
2022/05/28 10:08:57;;;;;;;5.40;1.60;;;;;;;21.09;35.96;101966.63;3579863;40;20085;-66
2022/05/28 10:11:24;;;;;;;6.20;1.50;;;;;;;21.27;36.21;101958.63;3583515;40;20048;-65
2022/05/28 10:13:56;;;;;;;10.48;1.92;;;;;;;21.22;37.11;101940.94;3583933;40;20129;-65
2022/05/28 10:16:36;;;;;;;5.00;1.60;;;;;;;21.64;34.34;101951.78;3583781;40;20056;-65
2022/05/28 10:19:02;;;;;;;6.32;1.77;;;;;;;21.59;34.21;101956.78;3584003;40;20049;-64
2022/05/28 10:21:34;;;;;;;5.45;1.67;;;;;;;21.02;34.40;101956.34;3583676;40;20114;-65
2022/05/28 10:24:12;;;;;;;4.60;1.48;;;;;;;20.39;35.49;101975.44;3579165;40;20097;-63
2022/05/28 10:26:49;;;;;;;6.57;1.40;;;;;;;20.20;35.43;101967.94;3583900;40;20107;-64
2022/05/28 10:29:23;;;;;;;5.93;1.65;;;;;;;20.53;35.08;101966.09;3583337;40;20052;-64
2022/05/28 10:31:52;;;;;;;5.68;1.10;;;;;;;20.86;34.16;101954.09;3584474;40;20122;-63
2022/05/28 10:34:31;;;;;;;6.38;1.80;;;;;;;21.23;33.82;101954.44;3582504;40;20047;-64
2022/05/28 10:37:18;;;;;;;5.10;1.38;;;;;;;21.36;32.94;101953.41;3582631;40;20049;-65
2022/05/28 10:39:44;;;;;;;6.28;1.75;;;;;;;21.28;33.62;101957.66;3584589;40;20052;-66
2022/05/28 10:42:14;;;;;;;9.65;1.65;;;;;;;20.95;33.63;101966.97;3579557;40;20051;-64
2022/05/28 10:44:43;;;;;;;10.07;1.58;;;;;;;20.56;32.25;101960.38;3584310;40;20386;-65
2022/05/28 10:47:32;;;;;;;5.13;1.80;;;;;;;20.20;34.29;101959.75;3584465;40;20058;-63
2022/05/28 10:50:34;;;;;;;5.82;1.60;;;;;;;20.34;35.03;101961.31;3582989;40;20083;-65
2022/05/28 10:53:49;;;;;;;5.93;1.33;;;;;;;20.92;33.57;101961.75;3582825;40;20060;-64
2022/05/28 10:56:26;;;;;;;5.45;1.42;;;;;;;21.10;31.31;101953.81;3585628;40;20087;-64
2022/05/28 10:59:15;;;;;;;4.68;1.38;;;;;;;21.34;30.62;101956.22;3583606;40;20080;-64
2022/05/28 11:02:10;;;;;;;3.15;1.40;;;;;;;21.61;31.06;101949.31;3584600;40;20086;-65
2022/05/28 11:05:05;;;;;;;9.80;1.40;;;;;;;21.96;30.01;101941.47;3585156;40;20044;-64
2022/05/28 11:07:56;;;;;;;2.63;1.08;;;;;;;22.31;30.40;101947.44;3584821;40;20086;-64
2022/05/28 11:10:32;;;;;;;3.85;1.35;;;;;;;22.51;29.86;101951.03;3585444;40;20472;-65
2022/05/28 11:13:24;;;;;;;2.67;1.17;;;;;;;22.73;30.20;101956.19;3584690;40;20052;-65
2022/05/28 11:16:14;;;;;;;5.70;1.75;;;;;;;22.84;30.45;101958.78;3585758;40;20133;-63
2022/05/28 11:18:54;;;;;;;9.98;2.30;;;;;;;22.88;30.31;101949.22;3584490;40;20213;-64
2022/05/28 11:21:59;;;;;;;6.13;1.40;;;;;;;22.36;29.65;101954.22;3586725;40;20130;-64
2022/05/28 11:25:26;;;;;;;4.60;1.30;;;;;;;21.97;28.54;101953.28;3584238;40;20075;-64
2022/05/28 11:28:41;;;;;;;5.07;1.40;;;;;;;21.96;27.43;101908.59;3579813;40;20088;-64
2022/05/28 11:31:41;;;;;;;3.42;1.10;;;;;;;22.41;27.48;101940.94;3585168;40;20055;-64
2022/05/28 11:34:23;;;;;;;4.47;1.40;;;;;;;22.90;27.51;101930.75;3583310;40;20048;-64
2022/05/28 11:36:58;;;;;;;4.90;0.88;;;;;;;22.96;29.27;101915.59;3583076;40;20068;-64
2022/05/28 11:39:42;;;;;;;5.72;1.30;;;;;;;23.39;28.22;101925.97;3578565;40;20100;-65
2022/05/28 11:43:00;;;;;;;5.43;1.02;;;;;;;23.78;26.66;101931.28;3585242;40;20122;-63
2022/05/28 11:45:55;;;;;;;3.13;1.38;;;;;;;23.91;26.16;101935.53;3585993;40;20380;-64
2022/05/28 11:51:27;;;;;;;5.28;1.20;;;;;;;23.94;24.56;101914.09;3584850;40;20064;-64
2022/05/28 11:51:39;;;;;;;4.57;1.40;;;;;;;23.03;26.37;101930.47;3584696;40;20068;-65
2022/05/28 11:54:21;;;;;;;;;;;;;;;22.53;25.43;101927.94;3584623;40;20044;-65
2022/05/28 11:56:58;;;;;;;2.83;0.75;;;;;;;22.75;26.28;101931.38;3582515;40;20503;-64
2022/05/28 11:59:27;;;;;;;2.85;0.93;;;;;;;22.91;27.33;101927.00;3581936;40;20048;-64